createdAt,value
2022-12-25T00:00:05.445Z,9.203753
2022-12-25T00:01:05.460Z,9.203771
2022-12-25T00:02:05.404Z,9.203813
2022-12-25T00:03:05.423Z,9.203929
2022-12-25T00:04:05.510Z,9.203655
2022-12-25T00:05:05.395Z,9.203671
2022-12-25T00:06:05.359Z,9.203941
2022-12-25T00:07:05.398Z,9.204188
2022-12-25T00:08:05.347Z,9.203960
2022-12-25T00:09:05.378Z,9.204091
2022-12-25T00:10:05.357Z,9.204086
2022-12-25T00:11:05.337Z,9.204000
2022-12-25T00:12:05.344Z,9.203992
2022-12-25T00:13:05.327Z,9.203666
2022-12-25T00:14:05.305Z,9.203665
2022-12-25T00:15:05.361Z,9.203637
2022-12-25T00:16:05.383Z,9.203778
2022-12-25T00:17:05.299Z,9.203926
2022-12-25T00:18:05.284Z,9.204010
2022-12-25T00:19:05.296Z,9.203961
2022-12-25T00:20:05.332Z,9.203689
2022-12-25T00:21:05.348Z,9.203402
2022-12-25T00:22:05.267Z,9.203758
2022-12-25T00:23:05.264Z,9.203734
2022-12-25T00:24:05.302Z,9.203507
2022-12-25T00:25:05.393Z,9.204014
2022-12-25T00:26:05.276Z,9.204241
2022-12-25T00:27:05.411Z,9.204404
2022-12-25T00:28:05.249Z,9.204156
2022-12-25T00:29:05.232Z,9.203759
2022-12-25T00:30:05.223Z,9.203807
2022-12-25T00:31:05.327Z,9.203988
2022-12-25T00:32:05.254Z,9.203977
2022-12-25T00:33:05.203Z,9.204027
2022-12-25T00:34:05.209Z,9.203785
2022-12-25T00:35:05.208Z,9.204163
2022-12-25T00:36:05.235Z,9.203927
2022-12-25T00:37:05.228Z,9.203633
2022-12-25T00:38:05.182Z,9.203782
2022-12-25T00:39:05.260Z,9.203653
2022-12-25T00:40:05.169Z,9.203981
2022-12-25T00:41:05.200Z,9.203757
2022-12-25T00:42:05.224Z,9.203386
2022-12-25T00:43:05.173Z,9.203579
2022-12-25T00:44:05.205Z,9.203544
2022-12-25T00:45:05.175Z,9.203855
2022-12-25T00:46:05.214Z,9.203946
2022-12-25T00:47:05.243Z,9.203793
2022-12-25T00:48:05.183Z,9.203835
2022-12-25T00:49:05.139Z,9.203818
2022-12-25T00:50:05.150Z,9.204028
2022-12-25T00:51:05.138Z,9.203640
2022-12-25T00:52:05.132Z,9.203691
2022-12-25T00:53:05.159Z,9.203680
2022-12-25T00:54:05.152Z,9.203856
2022-12-25T00:55:05.115Z,9.203745
2022-12-25T00:56:05.122Z,9.203709
2022-12-25T00:57:05.111Z,9.203771
2022-12-25T00:58:05.209Z,9.203720
2022-12-25T00:59:05.104Z,9.203730
2022-12-25T01:00:05.100Z,9.203686
2022-12-25T01:01:06.137Z,9.204000
2022-12-25T01:02:05.217Z,9.203760
2022-12-25T01:03:05.109Z,9.203637
2022-12-25T01:04:05.065Z,9.203773
2022-12-25T01:05:05.076Z,9.203977
2022-12-25T01:06:05.083Z,9.203819
2022-12-25T01:07:05.059Z,9.203905
2022-12-25T01:08:05.091Z,9.204053
2022-12-25T01:09:05.080Z,9.203650
2022-12-25T01:10:05.083Z,9.204082
2022-12-25T01:11:05.041Z,9.203273
2022-12-25T01:12:05.040Z,9.203760
2022-12-25T01:13:05.054Z,9.203831
2022-12-25T01:14:05.048Z,9.203465
2022-12-25T01:15:05.047Z,9.203676
2022-12-25T01:16:05.091Z,9.203613
2022-12-25T01:17:05.027Z,9.203720
2022-12-25T01:18:07.871Z,9.202970
2022-12-25T01:19:06.031Z,9.203296
2022-12-25T01:20:05.022Z,9.203517
2022-12-25T01:21:05.023Z,9.203979
2022-12-25T01:22:04.983Z,9.203175
2022-12-25T01:23:05.018Z,9.203601
2022-12-25T01:24:04.982Z,9.203288
2022-12-25T01:25:05.138Z,9.203424
2022-12-25T01:26:04.974Z,9.203550
2022-12-25T01:27:04.975Z,9.203548
2022-12-25T01:28:04.971Z,9.203821
2022-12-25T01:29:05.027Z,9.203721
2022-12-25T01:30:05.028Z,9.203951
2022-12-25T01:31:04.956Z,9.203691
2022-12-25T01:32:05.021Z,9.203451
2022-12-25T01:33:04.962Z,9.202349
2022-12-25T01:34:04.956Z,9.203526
2022-12-25T01:35:04.962Z,9.203752
2022-12-25T01:36:04.965Z,9.204131
2022-12-25T01:37:04.947Z,9.204266
2022-12-25T01:38:04.959Z,9.204107
2022-12-25T01:39:04.943Z,9.204186
2022-12-25T01:40:04.935Z,9.204424
2022-12-25T01:41:04.941Z,9.204648
2022-12-25T01:42:04.895Z,9.204365
2022-12-25T01:43:04.946Z,9.204037
2022-12-25T01:44:04.910Z,9.204508
2022-12-25T01:45:04.901Z,9.204072
2022-12-25T01:46:05.007Z,9.204664
2022-12-25T01:47:04.911Z,9.204709
2022-12-25T01:48:04.926Z,9.204356
2022-12-25T01:49:04.870Z,9.203977
2022-12-25T01:50:04.885Z,9.203614
2022-12-25T01:51:04.863Z,9.203564
2022-12-25T01:52:04.919Z,9.204151
2022-12-25T01:53:04.898Z,9.203815
2022-12-25T01:54:04.887Z,9.203484
2022-12-25T01:55:04.907Z,9.203815
2022-12-25T01:56:04.857Z,9.203727
2022-12-25T01:57:04.861Z,9.203903
2022-12-25T01:58:04.841Z,9.203704
2022-12-25T01:59:04.944Z,9.203950
2022-12-25T02:00:04.855Z,9.203565
2022-12-25T02:01:04.839Z,9.203734
2022-12-25T02:02:04.942Z,9.203686
2022-12-25T02:03:04.856Z,9.202958
2022-12-25T02:04:05.139Z,9.203507
2022-12-25T02:05:04.885Z,9.203970
2022-12-25T02:06:04.799Z,9.204039
2022-12-25T02:07:04.807Z,9.203648
2022-12-25T02:08:04.811Z,9.203607
2022-12-25T02:09:04.793Z,9.203661
2022-12-25T02:10:04.801Z,9.203708
2022-12-25T02:11:04.771Z,9.203580
2022-12-25T02:12:04.753Z,9.203828
2022-12-25T02:13:04.829Z,9.203983
2022-12-25T02:14:04.767Z,9.203647
2022-12-25T02:15:06.127Z,9.203684
2022-12-25T02:16:05.831Z,9.204346
2022-12-25T02:17:04.842Z,9.203993
2022-12-25T02:18:04.750Z,9.203599
2022-12-25T02:19:04.761Z,9.203889
2022-12-25T02:20:05.609Z,9.203773
2022-12-25T02:21:04.731Z,9.203859
2022-12-25T02:22:04.732Z,9.203701
2022-12-25T02:23:05.630Z,9.203809
2022-12-25T02:24:04.796Z,9.203394
2022-12-25T02:25:04.825Z,9.203757
2022-12-25T02:26:04.721Z,9.203925
2022-12-25T02:27:04.709Z,9.203794
2022-12-25T02:28:04.729Z,9.203652
2022-12-25T02:29:04.701Z,9.203775
2022-12-25T02:30:04.766Z,9.203971
2022-12-25T02:31:04.691Z,9.203930
2022-12-25T02:32:04.756Z,9.203883
2022-12-25T02:33:04.690Z,9.203835
2022-12-25T02:34:04.683Z,9.203979
2022-12-25T02:35:04.671Z,9.203951
2022-12-25T02:36:04.878Z,9.203987
2022-12-25T02:37:04.696Z,9.203875
2022-12-25T02:38:04.660Z,9.203894
2022-12-25T02:39:04.674Z,9.203775
2022-12-25T02:40:04.678Z,9.203756
2022-12-25T02:41:04.691Z,9.203739
2022-12-25T02:42:04.679Z,9.203983
2022-12-25T02:43:04.654Z,9.204102
2022-12-25T02:44:04.634Z,9.204049
2022-12-25T02:45:04.613Z,9.203875
2022-12-25T02:46:04.639Z,9.203914
2022-12-25T02:47:04.617Z,9.203888
2022-12-25T02:48:04.629Z,9.204094
2022-12-25T02:49:04.613Z,9.203927
2022-12-25T02:50:04.590Z,9.203801
2022-12-25T02:51:04.612Z,9.203983
2022-12-25T02:52:04.593Z,9.203961
2022-12-25T02:53:04.615Z,9.203594
2022-12-25T02:54:04.594Z,9.203879
2022-12-25T02:55:04.562Z,9.203806
2022-12-25T02:56:04.566Z,9.203919
2022-12-25T02:57:04.690Z,9.203832
2022-12-25T02:58:04.666Z,9.203816
2022-12-25T02:59:04.582Z,9.203868
2022-12-25T03:00:04.559Z,9.203820
2022-12-25T03:01:04.637Z,9.203677
2022-12-25T03:02:04.676Z,9.203903
2022-12-25T03:03:04.577Z,9.203863
2022-12-25T03:04:04.539Z,9.203546
2022-12-25T03:05:04.529Z,9.203680
2022-12-25T03:06:04.555Z,9.203772
2022-12-25T03:07:04.539Z,9.203667
2022-12-25T03:08:04.610Z,9.203696
2022-12-25T03:09:04.524Z,9.203734
2022-12-25T03:10:04.517Z,9.203607
2022-12-25T03:11:04.524Z,9.203723
2022-12-25T03:12:04.485Z,9.203867
2022-12-25T03:13:04.502Z,9.203617
2022-12-25T03:14:04.475Z,9.203740
2022-12-25T03:15:04.478Z,9.203897
2022-12-25T03:16:04.502Z,9.203667
2022-12-25T03:17:04.510Z,9.203712
2022-12-25T03:18:04.473Z,9.203882
2022-12-25T03:19:04.505Z,9.204157
2022-12-25T03:20:04.471Z,9.203694
2022-12-25T03:21:04.473Z,9.203794
2022-12-25T03:22:04.451Z,9.203660
2022-12-25T03:23:04.431Z,9.203824
2022-12-25T03:24:04.484Z,9.203769
2022-12-25T03:25:04.561Z,9.203786
2022-12-25T03:26:04.440Z,9.203678
2022-12-25T03:27:04.404Z,9.203819
2022-12-25T03:28:04.430Z,9.203773
2022-12-25T03:29:04.457Z,9.203832
2022-12-25T03:30:04.427Z,9.203876
2022-12-25T03:31:04.580Z,9.203794
2022-12-25T03:32:04.434Z,9.203820
2022-12-25T03:33:23.191Z,9.203837
2022-12-25T03:34:06.461Z,9.203768
2022-12-25T03:35:04.397Z,9.203814
2022-12-25T03:36:04.373Z,9.203521
2022-12-25T03:37:04.395Z,9.203395
2022-12-25T03:38:04.410Z,9.203556
2022-12-25T03:39:04.393Z,9.203795
2022-12-25T03:40:04.385Z,9.203525
2022-12-25T03:41:04.390Z,9.203516
2022-12-25T03:42:04.372Z,9.203585
2022-12-25T03:43:04.398Z,9.203709
2022-12-25T03:44:04.393Z,9.203761
2022-12-25T03:45:04.356Z,9.203839
2022-12-25T03:46:04.375Z,9.203669
2022-12-25T03:47:04.354Z,9.203925
2022-12-25T03:48:04.375Z,9.203810
2022-12-25T03:49:04.342Z,9.203767
2022-12-25T03:50:04.336Z,9.203762
2022-12-25T03:51:04.305Z,9.203763
2022-12-25T03:52:04.344Z,9.203634
2022-12-25T03:53:04.338Z,9.203705
2022-12-25T03:54:04.309Z,9.203747
2022-12-25T03:55:04.315Z,9.203762
2022-12-25T03:56:04.304Z,9.203637
2022-12-25T03:57:04.287Z,9.203763
2022-12-25T03:58:04.331Z,9.203736
2022-12-25T03:59:04.352Z,9.203773
2022-12-25T04:00:04.302Z,9.203715
2022-12-25T04:01:04.358Z,9.203708
2022-12-25T04:02:04.413Z,9.203618
2022-12-25T04:03:04.337Z,9.203815
2022-12-25T04:04:05.272Z,9.203754
2022-12-25T04:05:04.277Z,9.203670
2022-12-25T04:06:04.314Z,9.203631
2022-12-25T04:07:04.259Z,9.203707
2022-12-25T04:08:04.262Z,9.203771
2022-12-25T04:09:04.258Z,9.203846
2022-12-25T04:10:04.217Z,9.203796
2022-12-25T04:11:04.383Z,9.203768
2022-12-25T04:12:04.237Z,9.203811
2022-12-25T04:13:04.227Z,9.203732
2022-12-25T04:14:04.267Z,9.203837
2022-12-25T04:15:04.248Z,9.203904
2022-12-25T04:16:04.301Z,9.203807
2022-12-25T04:17:04.180Z,9.203773
2022-12-25T04:18:04.204Z,9.203989
2022-12-25T04:19:04.220Z,9.203719
2022-12-25T04:20:04.219Z,9.203821
2022-12-25T04:21:04.217Z,9.203711
2022-12-25T04:22:04.169Z,9.203976
2022-12-25T04:23:04.226Z,9.203822
2022-12-25T04:24:04.168Z,9.203788
2022-12-25T04:25:04.247Z,9.203851
2022-12-25T04:26:04.189Z,9.203740
2022-12-25T04:27:04.167Z,9.203660
2022-12-25T04:28:05.162Z,9.203776
2022-12-25T04:29:04.143Z,9.203827
2022-12-25T04:30:04.191Z,9.203902
2022-12-25T04:31:04.177Z,9.203956
2022-12-25T04:32:04.170Z,9.203810
2022-12-25T04:33:04.192Z,9.203789
2022-12-25T04:34:04.142Z,9.203796
2022-12-25T04:35:04.159Z,9.204142
2022-12-25T04:36:04.142Z,9.203857
2022-12-25T04:37:04.110Z,9.203770
2022-12-25T04:38:04.126Z,9.203913
2022-12-25T04:39:04.151Z,9.203939
2022-12-25T04:40:04.109Z,9.203916
2022-12-25T04:41:04.153Z,9.203895
2022-12-25T04:42:04.100Z,9.204030
2022-12-25T04:43:04.150Z,9.203762
2022-12-25T04:44:04.100Z,9.203798
2022-12-25T04:45:04.105Z,9.203799
2022-12-25T04:46:04.106Z,9.203906
2022-12-25T04:47:10.745Z,9.203878
2022-12-25T04:48:06.060Z,9.203994
2022-12-25T04:49:04.066Z,9.203950
2022-12-25T04:50:04.075Z,9.203779
2022-12-25T04:51:04.049Z,9.203753
2022-12-25T04:52:04.065Z,9.204117
2022-12-25T04:53:04.054Z,9.204001
2022-12-25T04:54:04.039Z,9.203882
2022-12-25T04:55:04.040Z,9.203896
2022-12-25T04:56:04.045Z,9.204005
2022-12-25T04:57:04.042Z,9.203792
2022-12-25T04:58:04.026Z,9.204014
2022-12-25T04:59:04.023Z,9.203956
2022-12-25T05:00:04.025Z,9.203918
2022-12-25T05:01:04.116Z,9.203926
2022-12-25T05:02:04.099Z,9.203961
2022-12-25T05:03:04.081Z,9.203815
2022-12-25T05:04:04.003Z,9.203666
2022-12-25T05:05:04.019Z,9.203662
2022-12-25T05:06:04.048Z,9.203529
2022-12-25T05:07:04.050Z,9.203705
2022-12-25T05:08:04.000Z,9.203769
2022-12-25T05:09:03.981Z,9.203944
2022-12-25T05:10:04.003Z,9.204029
2022-12-25T05:11:03.983Z,9.203791
2022-12-25T05:12:04.006Z,9.203714
2022-12-25T05:13:03.953Z,9.203808
2022-12-25T05:14:03.963Z,9.203851
2022-12-25T05:15:03.953Z,9.203876
2022-12-25T05:16:04.033Z,9.203790
2022-12-25T05:17:03.965Z,9.203768
2022-12-25T05:18:03.978Z,9.203667
2022-12-25T05:19:03.951Z,9.203635
2022-12-25T05:20:03.971Z,9.203604
2022-12-25T05:21:03.962Z,9.203670
2022-12-25T05:22:03.918Z,9.203778
2022-12-25T05:23:03.933Z,9.203945
2022-12-25T05:24:03.902Z,9.203923
2022-12-25T05:25:03.952Z,9.203668
2022-12-25T05:26:03.886Z,9.203768
2022-12-25T05:27:03.910Z,9.203719
2022-12-25T05:28:03.886Z,9.203743
2022-12-25T05:29:03.915Z,9.203771
2022-12-25T05:30:03.899Z,9.203736
2022-12-25T05:31:03.980Z,9.203572
2022-12-25T05:32:04.884Z,9.203573
2022-12-25T05:33:03.949Z,9.203785
2022-12-25T05:34:03.856Z,9.203757
2022-12-25T05:35:03.911Z,9.203485
2022-12-25T05:36:03.854Z,9.203251
2022-12-25T05:37:03.868Z,9.203643
2022-12-25T05:38:03.843Z,9.203627
2022-12-25T05:39:03.835Z,9.203567
2022-12-25T05:40:03.809Z,9.203599
2022-12-25T05:41:03.829Z,9.203562
2022-12-25T05:42:03.834Z,9.203840
2022-12-25T05:43:03.823Z,9.203640
2022-12-25T05:44:03.860Z,9.203902
2022-12-25T05:45:03.818Z,9.203820
2022-12-25T05:46:03.830Z,9.203753
2022-12-25T05:47:03.883Z,9.203567
2022-12-25T05:48:03.833Z,9.203458
2022-12-25T05:49:03.815Z,9.203807
2022-12-25T05:50:03.781Z,9.203901
2022-12-25T05:51:03.786Z,9.203530
2022-12-25T05:52:03.806Z,9.203697
2022-12-25T05:53:08.095Z,9.203660
2022-12-25T05:54:04.795Z,9.203804
2022-12-25T05:55:03.746Z,9.203869
2022-12-25T05:56:03.783Z,9.203736
2022-12-25T05:57:03.763Z,9.203771
2022-12-25T05:58:03.784Z,9.203702
2022-12-25T05:59:03.772Z,9.203713
2022-12-25T06:00:03.730Z,9.203759
2022-12-25T06:01:03.738Z,9.203733
2022-12-25T06:02:03.949Z,9.203691
2022-12-25T06:03:03.851Z,9.203702
2022-12-25T06:04:10.180Z,9.203821
2022-12-25T06:05:05.778Z,9.203686
2022-12-25T06:06:03.701Z,9.203901
2022-12-25T06:07:03.729Z,9.203815
2022-12-25T06:08:03.721Z,9.203708
2022-12-25T06:09:03.729Z,9.203816
2022-12-25T06:10:03.739Z,9.203744
2022-12-25T06:11:03.694Z,9.203746
2022-12-25T06:12:03.694Z,9.204027
2022-12-25T06:13:03.688Z,9.203963
2022-12-25T06:14:03.672Z,9.203714
2022-12-25T06:15:03.680Z,9.203648
2022-12-25T06:16:03.686Z,9.203549
2022-12-25T06:17:03.735Z,9.203167
2022-12-25T06:18:03.645Z,9.203791
2022-12-25T06:19:03.656Z,9.203903
2022-12-25T06:20:03.686Z,9.203635
2022-12-25T06:21:03.658Z,9.203634
2022-12-25T06:22:03.628Z,9.203848
2022-12-25T06:23:03.625Z,9.203805
2022-12-25T06:24:03.683Z,9.203822
2022-12-25T06:25:03.646Z,9.203947
2022-12-25T06:26:03.651Z,9.203985
2022-12-25T06:27:03.699Z,9.203981
2022-12-25T06:28:03.672Z,9.203676
2022-12-25T06:29:03.616Z,9.203691
2022-12-25T06:30:03.636Z,9.203850
2022-12-25T06:31:03.732Z,9.203911
2022-12-25T06:32:03.680Z,9.203818
2022-12-25T06:33:03.575Z,9.203753
2022-12-25T06:34:03.573Z,9.203771
2022-12-25T06:35:03.593Z,9.203550
2022-12-25T06:36:03.621Z,9.203692
2022-12-25T06:37:03.569Z,9.203867
2022-12-25T06:38:03.573Z,9.203739
2022-12-25T06:39:03.584Z,9.203694
2022-12-25T06:40:03.541Z,9.203866
2022-12-25T06:41:03.565Z,9.203955
2022-12-25T06:42:03.549Z,9.203737
2022-12-25T06:43:03.586Z,9.203830
2022-12-25T06:44:03.548Z,9.203697
2022-12-25T06:45:03.535Z,9.203609
2022-12-25T06:46:03.597Z,9.203659
2022-12-25T06:47:03.551Z,9.203603
2022-12-25T06:48:03.537Z,9.203753
2022-12-25T06:49:03.608Z,9.203725
2022-12-25T06:50:03.514Z,9.203741
2022-12-25T06:51:03.549Z,9.203794
2022-12-25T06:52:03.487Z,9.203672
2022-12-25T06:53:03.525Z,9.203687
2022-12-25T06:54:03.483Z,9.203716
2022-12-25T06:55:03.507Z,9.203680
2022-12-25T06:56:03.484Z,9.203663
2022-12-25T06:57:03.500Z,9.203712
2022-12-25T06:58:03.481Z,9.203588
2022-12-25T06:59:03.543Z,9.203615
2022-12-25T07:00:03.502Z,9.203736
2022-12-25T07:01:03.462Z,9.203794
2022-12-25T07:02:03.587Z,9.203508
2022-12-25T07:03:03.522Z,9.203872
2022-12-25T07:04:03.462Z,9.203809
2022-12-25T07:05:03.441Z,9.203671
2022-12-25T07:06:03.434Z,9.203468
2022-12-25T07:07:08.746Z,9.203648
2022-12-25T07:08:05.407Z,9.203683
2022-12-25T07:09:03.403Z,9.203400
2022-12-25T07:10:03.440Z,9.203877
2022-12-25T07:11:03.423Z,9.203818
2022-12-25T07:12:03.435Z,9.203868
2022-12-25T07:13:04.408Z,9.203813
2022-12-25T07:14:03.393Z,9.203782
2022-12-25T07:15:03.404Z,9.203522
2022-12-25T07:16:03.409Z,9.203753
2022-12-25T07:17:03.432Z,9.203888
2022-12-25T07:18:03.408Z,9.203823
2022-12-25T07:19:03.377Z,9.203673
2022-12-25T07:20:03.385Z,9.203822
2022-12-25T07:21:03.356Z,9.203905
2022-12-25T07:22:03.381Z,9.203823
2022-12-25T07:23:03.342Z,9.203487
2022-12-25T07:24:03.382Z,9.203367
2022-12-25T07:25:03.378Z,9.203410
2022-12-25T07:26:03.336Z,9.203776
2022-12-25T07:27:03.375Z,9.203701
2022-12-25T07:28:03.321Z,9.203551
2022-12-25T07:29:03.317Z,9.203695
2022-12-25T07:30:03.343Z,9.203754
2022-12-25T07:31:03.311Z,9.203671
2022-12-25T07:32:03.385Z,9.203531
2022-12-25T07:33:03.302Z,9.203760
2022-12-25T07:34:03.324Z,9.203562
2022-12-25T07:35:03.341Z,9.203367
2022-12-25T07:36:03.311Z,9.203296
2022-12-25T07:37:03.314Z,9.203500
2022-12-25T07:38:04.283Z,9.203683
2022-12-25T07:39:03.429Z,9.203629
2022-12-25T07:40:03.520Z,9.203573
2022-12-25T07:41:03.308Z,9.203588
2022-12-25T07:42:03.271Z,9.203888
2022-12-25T07:43:03.280Z,9.203776
2022-12-25T07:44:03.268Z,9.203551
2022-12-25T07:45:03.255Z,9.203507
2022-12-25T07:46:03.263Z,9.203345
2022-12-25T07:47:03.246Z,9.203528
2022-12-25T07:48:05.764Z,9.203568
2022-12-25T07:49:04.229Z,9.203523
2022-12-25T07:50:03.251Z,9.203586
2022-12-25T07:51:03.220Z,9.203751
2022-12-25T07:52:03.256Z,9.203545
2022-12-25T07:53:03.242Z,9.203606
2022-12-25T07:54:03.201Z,9.203435
2022-12-25T07:55:03.218Z,9.203615
2022-12-25T07:56:03.232Z,9.203675
2022-12-25T07:57:03.263Z,9.203707
2022-12-25T07:58:03.206Z,9.203476
2022-12-25T07:59:03.204Z,9.203620
2022-12-25T08:00:03.168Z,9.203614
2022-12-25T08:01:03.247Z,9.203440
2022-12-25T08:02:03.460Z,9.203676
2022-12-25T08:03:03.316Z,9.203898
2022-12-25T08:04:03.300Z,9.203831
2022-12-25T08:05:03.150Z,9.203766
2022-12-25T08:06:03.150Z,9.203790
2022-12-25T08:07:03.141Z,9.203922
2022-12-25T08:08:03.131Z,9.203799
2022-12-25T08:09:03.184Z,9.204002
2022-12-25T08:10:03.139Z,9.203815
2022-12-25T08:11:03.129Z,9.203570
2022-12-25T08:12:03.121Z,9.203861
2022-12-25T08:13:04.026Z,9.203631
2022-12-25T08:14:03.138Z,9.203362
2022-12-25T08:15:03.120Z,9.203408
2022-12-25T08:16:03.153Z,9.203737
2022-12-25T08:17:03.203Z,9.203681
2022-12-25T08:18:03.146Z,9.203491
2022-12-25T08:19:03.089Z,9.203466
2022-12-25T08:20:03.127Z,9.203645
2022-12-25T08:21:03.074Z,9.203629
2022-12-25T08:22:03.070Z,9.203433
2022-12-25T08:23:03.079Z,9.203453
2022-12-25T08:24:03.174Z,9.203535
2022-12-25T08:25:03.063Z,9.203700
2022-12-25T08:26:05.412Z,9.203525
2022-12-25T08:27:04.097Z,9.203243
2022-12-25T08:28:03.057Z,9.203576
2022-12-25T08:29:03.070Z,9.203692
2022-12-25T08:30:03.112Z,9.203511
2022-12-25T08:31:03.095Z,9.203645
2022-12-25T08:32:03.080Z,9.203437
2022-12-25T08:33:03.021Z,9.203421
2022-12-25T08:34:03.066Z,9.203835
2022-12-25T08:35:03.003Z,9.203437
2022-12-25T08:36:03.058Z,9.203533
2022-12-25T08:37:03.033Z,9.203634
2022-12-25T08:38:03.014Z,9.203729
2022-12-25T08:39:03.596Z,9.203562
2022-12-25T08:40:04.024Z,9.203404
2022-12-25T08:41:02.989Z,9.203176
2022-12-25T08:42:02.978Z,9.203135
2022-12-25T08:43:02.980Z,9.203537
2022-12-25T08:44:03.033Z,9.203219
2022-12-25T08:45:02.989Z,9.203042
2022-12-25T08:46:03.000Z,9.202899
2022-12-25T08:47:02.992Z,9.202698
2022-12-25T08:48:02.984Z,9.202633
2022-12-25T08:49:03.949Z,9.202001
2022-12-25T08:50:03.006Z,9.201273
2022-12-25T08:51:03.002Z,9.201563
2022-12-25T08:52:02.973Z,9.202650
2022-12-25T08:53:02.979Z,9.203471
2022-12-25T08:54:02.940Z,9.203688
2022-12-25T08:55:02.962Z,9.203723
2022-12-25T08:56:02.921Z,9.203085
2022-12-25T08:57:03.299Z,9.203202
2022-12-25T08:58:03.905Z,9.203926
2022-12-25T08:59:02.906Z,9.204095
2022-12-25T09:00:02.906Z,9.203547
2022-12-25T09:01:03.008Z,9.203899
2022-12-25T09:02:02.964Z,9.203650
2022-12-25T09:03:03.078Z,9.203798
2022-12-25T09:04:02.878Z,9.203260
2022-12-25T09:05:02.856Z,9.203017
2022-12-25T09:06:02.881Z,9.202873
2022-12-25T09:07:02.893Z,9.202956
2022-12-25T09:08:02.893Z,9.202789
2022-12-25T09:09:02.884Z,9.202808
2022-12-25T09:10:02.856Z,9.203235
2022-12-25T09:11:02.845Z,9.202650
2022-12-25T09:12:02.901Z,9.202905
2022-12-25T09:13:02.884Z,9.203209
2022-12-25T09:14:02.857Z,9.203638
2022-12-25T09:15:02.831Z,9.203732
2022-12-25T09:16:02.865Z,9.203840
2022-12-25T09:17:02.835Z,9.203944
2022-12-25T09:18:02.826Z,9.203608
2022-12-25T09:19:02.840Z,9.203707
2022-12-25T09:20:02.806Z,9.203651
2022-12-25T09:21:02.811Z,9.203686
2022-12-25T09:22:02.806Z,9.203620
2022-12-25T09:23:02.979Z,9.204055
2022-12-25T09:24:02.853Z,9.204285
2022-12-25T09:25:02.822Z,9.203482
2022-12-25T09:26:02.782Z,9.203561
2022-12-25T09:27:02.783Z,9.203661
2022-12-25T09:28:02.770Z,9.203891
2022-12-25T09:29:02.826Z,9.203556
2022-12-25T09:30:02.787Z,9.203775
2022-12-25T09:31:02.859Z,9.203852
2022-12-25T09:32:02.743Z,9.203977
2022-12-25T09:33:02.759Z,9.203708
2022-12-25T09:34:02.737Z,9.203799
2022-12-25T09:35:02.781Z,9.203927
2022-12-25T09:36:02.735Z,9.203998
2022-12-25T09:37:02.754Z,9.204359
2022-12-25T09:38:02.813Z,9.204319
2022-12-25T09:39:02.723Z,9.204385
2022-12-25T09:40:02.703Z,9.204509
2022-12-25T09:41:02.714Z,9.204477
2022-12-25T09:42:02.724Z,9.203985
2022-12-25T09:43:02.690Z,9.203291
2022-12-25T09:44:02.754Z,9.203097
2022-12-25T09:45:02.809Z,9.203667
2022-12-25T09:46:02.771Z,9.203395
2022-12-25T09:47:02.673Z,9.203507
2022-12-25T09:48:02.716Z,9.203491
2022-12-25T09:49:02.671Z,9.203293
2022-12-25T09:50:02.819Z,9.203565
2022-12-25T09:51:02.694Z,9.203749
2022-12-25T09:52:02.719Z,9.205418
2022-12-25T09:53:02.689Z,9.204793
2022-12-25T09:54:02.652Z,9.204230
2022-12-25T09:55:02.683Z,9.203870
2022-12-25T09:56:02.681Z,9.204056
2022-12-25T09:57:02.631Z,9.203733
2022-12-25T09:58:02.647Z,9.203461
2022-12-25T09:59:02.639Z,9.204071
2022-12-25T10:00:02.640Z,9.204312
2022-12-25T10:01:02.641Z,9.204144
2022-12-25T10:02:02.813Z,9.204331
2022-12-25T10:03:02.827Z,9.204110
2022-12-25T10:04:02.600Z,9.203918
2022-12-25T10:05:02.740Z,9.204033
2022-12-25T10:06:02.595Z,9.203484
2022-12-25T10:07:02.607Z,9.203339
2022-12-25T10:08:02.594Z,9.203632
2022-12-25T10:09:02.648Z,9.203914
2022-12-25T10:10:02.580Z,9.203853
2022-12-25T10:11:02.568Z,9.204045
2022-12-25T10:12:02.571Z,9.203786
2022-12-25T10:13:02.561Z,9.203929
2022-12-25T10:14:02.593Z,9.203767
2022-12-25T10:15:02.568Z,9.203700
2022-12-25T10:16:02.570Z,9.203582
2022-12-25T10:17:02.560Z,9.203759
2022-12-25T10:18:02.572Z,9.203211
2022-12-25T10:19:02.558Z,9.203276
2022-12-25T10:20:02.526Z,9.203478
2022-12-25T10:21:04.694Z,9.203796
2022-12-25T10:22:02.528Z,9.203628
2022-12-25T10:23:02.510Z,9.203742
2022-12-25T10:24:02.486Z,9.203458
2022-12-25T10:25:02.560Z,9.203844
2022-12-25T10:26:02.522Z,9.203938
2022-12-25T10:27:02.485Z,9.203730
2022-12-25T10:28:02.483Z,9.203787
2022-12-25T10:29:02.476Z,9.203784
2022-12-25T10:30:02.496Z,9.203531
2022-12-25T10:31:02.528Z,9.203843
2022-12-25T10:32:02.473Z,9.203727
2022-12-25T10:33:02.460Z,9.203787
2022-12-25T10:34:02.454Z,9.203713
2022-12-25T10:35:02.436Z,9.203754
2022-12-25T10:36:02.525Z,9.203642
2022-12-25T10:37:02.451Z,9.203633
2022-12-25T10:38:02.441Z,9.203734
2022-12-25T10:39:02.510Z,9.203591
2022-12-25T10:40:02.446Z,9.203371
2022-12-25T10:41:02.441Z,9.203493
2022-12-25T10:42:02.450Z,9.203742
2022-12-25T10:43:02.406Z,9.203749
2022-12-25T10:44:03.400Z,9.203888
2022-12-25T10:45:02.412Z,9.203849
2022-12-25T10:46:02.425Z,9.203980
2022-12-25T10:47:02.412Z,9.203647
2022-12-25T10:48:07.132Z,9.203467
2022-12-25T10:49:04.470Z,9.203741
2022-12-25T10:50:02.362Z,9.203604
2022-12-25T10:51:03.371Z,9.203527
2022-12-25T10:52:02.394Z,9.203505
2022-12-25T10:53:02.468Z,9.203509
2022-12-25T10:54:02.346Z,9.203610
2022-12-25T10:55:02.337Z,9.203458
2022-12-25T10:56:02.333Z,9.203520
2022-12-25T10:57:02.380Z,9.203320
2022-12-25T10:58:02.340Z,9.203609
2022-12-25T10:59:02.315Z,9.203738
2022-12-25T11:00:02.339Z,9.203885
2022-12-25T11:01:02.371Z,9.203633
2022-12-25T11:02:02.432Z,9.203818
2022-12-25T11:03:02.548Z,9.203781
2022-12-25T11:04:02.394Z,9.203423
2022-12-25T11:05:02.305Z,9.203486
2022-12-25T11:06:02.302Z,9.203658
2022-12-25T11:07:02.282Z,9.203524
2022-12-25T11:08:02.343Z,9.203614
2022-12-25T11:09:02.284Z,9.203540
2022-12-25T11:10:05.127Z,9.203558
2022-12-25T11:11:03.257Z,9.203698
2022-12-25T11:12:02.262Z,9.203946
2022-12-25T11:13:02.419Z,9.203863
2022-12-25T11:14:02.379Z,9.203869
2022-12-25T11:15:02.235Z,9.203888
2022-12-25T11:16:02.319Z,9.203832
2022-12-25T11:17:02.231Z,9.203674
2022-12-25T11:18:02.221Z,9.203706
2022-12-25T11:19:02.251Z,9.203806
2022-12-25T11:20:02.212Z,9.203769
2022-12-25T11:21:02.260Z,9.203767
2022-12-25T11:22:02.220Z,9.203661
2022-12-25T11:23:02.212Z,9.203691
2022-12-25T11:24:02.225Z,9.203593
2022-12-25T11:25:02.190Z,9.203653
2022-12-25T11:26:02.217Z,9.203935
2022-12-25T11:27:02.192Z,9.204091
2022-12-25T11:28:02.186Z,9.203568
2022-12-25T11:29:02.223Z,9.203698
2022-12-25T11:30:02.174Z,9.203654
2022-12-25T11:31:02.241Z,9.203943
2022-12-25T11:32:02.191Z,9.203753
2022-12-25T11:33:02.157Z,9.203236
2022-12-25T11:34:02.156Z,9.203341
2022-12-25T11:35:02.120Z,9.203639
2022-12-25T11:36:02.253Z,9.203573
2022-12-25T11:37:02.188Z,9.203557
2022-12-25T11:38:02.138Z,9.203712
2022-12-25T11:39:02.132Z,9.203833
2022-12-25T11:40:02.123Z,9.203700
2022-12-25T11:41:02.111Z,9.203743
2022-12-25T11:42:02.116Z,9.203760
2022-12-25T11:43:07.637Z,9.203807
2022-12-25T11:44:04.092Z,9.203794